Time;durP1;ratioP1;P1;durP2;ratioP2;P2;SDS_P1;SDS_P2;PMS_P1;PMS_P2;Temp;Humidity;BMP_temperature;BMP_pressure;BME280_temperature;BME280_humidity;BME280_pressure;Samples;Min_cycle;Max_cycle;Signal;HPM_P1;HPM_P2
2021/04/21 00:00:19;;;;;;;;;;;;;;;8.73;65.12;100922.09;5018859;28;19916;-93
2021/04/21 00:02:45;;;;;;;;;;;;;;;8.71;65.25;100919.66;5002011;28;19945;-95
2021/04/21 00:05:11;;;;;;;;;;;;;;;8.70;65.61;100911.75;5029863;28;19932;-94
2021/04/21 00:07:37;;;;;;;;;;;;;;;8.69;66.74;100916.34;5029613;28;20358;-94
2021/04/21 00:10:06;;;;;;;;;;;;;;;8.67;67.30;100910.34;4997572;28;19957;-93
2021/04/21 00:12:32;;;;;;;;;;;;;;;8.65;67.11;100909.81;5013574;28;19916;-95
2021/04/21 00:14:57;;;;;;;;;;;;;;;8.65;66.80;100909.81;5019849;28;19994;-95
2021/04/21 00:17:23;;;;;;;;;;;;;;;8.62;66.58;100897.56;5029635;28;19985;-93
2021/04/21 00:19:48;;;;;;;;;;;;;;;8.62;67.15;100900.28;5013894;28;19920;-94
2021/04/21 00:22:15;;;;;;;;;;;;;;;8.63;67.43;100896.47;5012706;28;20358;-96
2021/04/21 00:24:40;;;;;;;;;;;;;;;8.62;67.56;100900.28;5014997;28;19936;-94
2021/04/21 00:27:05;;;;;;;;;;;;;;;8.63;68.55;100896.47;5030188;28;20358;-96
2021/04/21 00:29:32;;;;;;;;;;;;;;;8.63;68.63;100884.78;5014050;28;19920;-93
2021/04/21 00:31:58;;;;;;;;;;;;;;;8.60;69.07;100874.44;5029650;28;19952;-93
2021/04/21 00:34:24;;;;;;;;;;;;;;;8.58;68.65;100869.25;5013200;28;20396;-93
2021/04/21 00:36:49;;;;;;;;;;;;;;;8.57;68.34;100869.53;5012903;28;19909;-94
2021/04/21 00:39:15;;;;;;;;;;;;;;;8.56;68.74;100873.31;5013430;28;19913;-93
2021/04/21 00:41:42;;;;;;;;;;;;;;;8.54;68.59;100860.00;5012695;28;19917;-93
2021/04/21 00:44:10;;;;;;;;;;;;;;;8.55;68.75;100866.25;5013603;28;19909;-95
2021/04/21 00:46:39;;;;;;;;;;;;;;;8.53;68.72;100863.75;5008356;28;19920;-91
2021/04/21 00:49:25;;;;;;;;;;;;;;;8.52;69.04;100861.31;5013168;28;19913;-94
2021/04/21 00:52:14;;;;;;;;;;;;;;;8.52;68.84;100855.88;5039932;28;20008;-92
2021/04/21 00:54:45;;;;;;;;;;;;;;;8.51;69.41;100848.78;5011140;28;19917;-94
2021/04/21 00:57:17;;;;;;;;;;;;;;;8.49;69.27;100850.97;5019519;28;19939;-93
2021/04/21 00:59:44;;;;;;;;;;;;;;;8.49;70.07;100853.69;5029061;28;20378;-92
2021/04/21 01:02:09;;;;;;;;;;;;;;;8.46;70.35;100849.59;5010104;28;19920;-95
2021/04/21 01:04:36;;;;;;;;;;;;;;;8.44;70.52;100849.03;5039434;28;19909;-93
2021/04/21 01:07:01;;;;;;;;;;;;;;;8.42;70.36;100841.13;5012586;28;19913;-93
2021/04/21 01:09:27;;;;;;;;;;;;;;;8.40;70.62;100837.84;5013174;28;19913;-94
2021/04/21 01:12:01;;;;;;;;;;;;;;;8.38;70.24;100839.16;5009540;28;19918;-94
2021/04/21 01:14:26;;;;;;;;;;;;;;;8.38;70.74;100831.81;5011923;28;19913;-92
2021/04/21 01:16:53;;;;;;;;;;;;;;;8.37;71.28;100824.72;5012660;28;19941;-96
2021/04/21 01:19:32;;;;;;;;;;;;;;;8.34;70.75;100822.53;5027070;28;19921;-94
2021/04/21 01:21:58;;;;;;;;;;;;;;;8.33;71.36;100820.91;5013327;28;19928;-95
2021/04/21 01:24:34;;;;;;;;;;;;;;;8.33;71.79;100829.06;5010911;28;19920;-94
2021/04/21 01:27:07;;;;;;;;;;;;;;;8.30;71.82;100824.16;5029394;28;19913;-90
2021/04/21 01:29:39;;;;;;;;;;;;;;;8.28;72.01;100818.13;5015620;28;19924;-94
2021/04/21 01:32:08;;;;;;;;;;;;;;;8.28;72.45;100822.75;5012475;28;19909;-96
2021/04/21 01:34:34;;;;;;;;;;;;;;;8.26;72.62;100817.56;5012146;28;20400;-91
2021/04/21 01:37:01;;;;;;;;;;;;;;;8.25;72.18;100817.84;5012781;28;19913;-92
2021/04/21 01:39:26;;;;;;;;;;;;;;;8.24;72.62;100822.47;5034029;28;19915;-91
2021/04/21 01:41:52;;;;;;;;;;;;;;;8.22;72.19;100813.75;5035230;28;20356;-93
2021/04/21 01:44:22;;;;;;;;;;;;;;;8.20;72.27;100810.47;5005840;28;19921;-93
2021/04/21 01:46:49;;;;;;;;;;;;;;;8.19;72.43;100808.84;5043534;28;19913;-92
2021/04/21 01:49:21;;;;;;;;;;;;;;;8.18;72.54;100799.03;5028846;28;19929;-94
2021/04/21 01:51:46;;;;;;;;;;;;;;;8.18;72.62;100812.59;5013801;28;19920;-93
2021/04/21 01:54:15;;;;;;;;;;;;;;;8.17;73.11;100797.41;5027910;28;20282;-94
2021/04/21 01:56:43;;;;;;;;;;;;;;;8.16;73.59;100796.59;5028335;28;19913;-91
2021/04/21 01:59:24;;;;;;;;;;;;;;;8.15;73.60;100792.22;5045543;28;19910;-95
2021/04/21 02:01:56;;;;;;;;;;;;;;;8.15;74.01;100799.53;5012941;28;20290;-91
2021/04/21 02:04:27;;;;;;;;;;;;;;;8.14;74.21;100795.19;5012328;28;20370;-93
2021/04/21 02:06:57;;;;;;;;;;;;;;;8.11;74.22;100795.72;5012960;28;19976;-93
2021/04/21 02:09:29;;;;;;;;;;;;;;;8.08;74.41;100796.25;5012586;28;20052;-95
2021/04/21 02:12:12;;;;;;;;;;;;;;;8.08;74.78;100785.38;5014552;28;19920;-93
2021/04/21 02:14:56;;;;;;;;;;;;;;;8.06;74.82;100792.94;5007239;28;19917;-94
2021/04/21 02:17:40;;;;;;;;;;;;;;;8.09;75.18;100793.25;5021306;28;19966;-95
2021/04/21 02:20:05;;;;;;;;;;;;;;;8.11;74.85;100790.28;5038824;28;19917;-96
2021/04/21 02:22:33;;;;;;;;;;;;;;;8.14;75.18;100800.63;5022499;28;20055;-96
2021/04/21 02:25:14;;;;;;;;;;;;;;;8.13;75.23;100798.97;5024511;28;19910;-96
2021/04/21 02:27:43;;;;;;;;;;;;;;;8.10;75.25;100788.63;5018300;28;20006;-94
2021/04/21 02:30:46;;;;;;;;;;;;;;;8.05;75.87;100785.88;5033034;28;19909;-93
2021/04/21 02:33:30;;;;;;;;;;;;;;;7.97;75.63;100785.28;4936690;29;19914;-96
2021/04/21 02:35:57;;;;;;;;;;;;;;;7.94;76.06;100788.50;4937175;29;20336;-96
2021/04/21 02:38:42;;;;;;;;;;;;;;;7.90;75.95;100773.78;4975821;28;20341;-96
2021/04/21 02:41:09;;;;;;;;;;;;;;;7.85;76.53;100781.06;5016101;28;19960;-95
2021/04/21 02:43:53;;;;;;;;;;;;;;;7.79;76.34;100766.63;5015412;28;20000;-95
2021/04/21 02:46:30;;;;;;;;;;;;;;;7.73;76.65;100789.34;5013355;28;19920;-96
2021/04/21 02:49:25;;;;;;;;;;;;;;;7.62;76.64;100771.34;5016823;28;19913;-94
2021/04/21 02:52:09;;;;;;;;;;;;;;;7.54;76.78;100772.59;5014608;28;20007;-92
2021/04/21 02:55:00;;;;;;;;;;;;;;;7.47;77.24;100751.06;5017322;28;20286;-89
2021/04/21 02:57:28;;;;;;;;;;;;;;;7.45;77.14;100766.00;4983234;28;19917;-94
2021/04/21 03:00:04;;;;;;;;;;;;;;;7.44;77.38;100770.56;5006823;28;20004;-94
2021/04/21 03:02:33;;;;;;;;;;;;;;;7.42;77.66;100764.59;4998773;28;19960;-95
2021/04/21 03:05:13;;;;;;;;;;;;;;;7.42;78.07;100761.88;5027658;28;19909;-95
2021/04/21 03:07:53;;;;;;;;;;;;;;;7.44;77.82;100753.47;5005156;28;19913;-93
2021/04/21 03:10:18;;;;;;;;;;;;;;;7.45;78.01;100753.25;5038280;28;19913;-95
2021/04/21 03:12:45;;;;;;;;;;;;;;;7.46;78.34;100741.31;5006255;28;19944;-94
2021/04/21 03:15:11;;;;;;;;;;;;;;;7.48;78.44;100743.78;5011699;28;19957;-96
2021/04/21 03:17:38;;;;;;;;;;;;;;;7.51;78.43;100744.09;5020105;28;19913;-94
2021/04/21 03:20:12;;;;;;;;;;;;;;;7.53;78.61;100744.66;5036031;28;20015;-91
2021/04/21 03:22:37;;;;;;;;;;;;;;;7.56;78.68;100722.44;5014728;28;19916;-95
2021/04/21 03:25:05;;;;;;;;;;;;;;;7.59;78.54;100717.59;5034409;28;19917;-95
2021/04/21 03:27:32;;;;;;;;;;;;;;;7.63;78.56;100724.13;5009199;28;19909;-94
2021/04/21 03:29:58;;;;;;;;;;;;;;;7.64;78.58;100709.47;5013852;28;19913;-92
2021/04/21 03:32:26;;;;;;;;;;;;;;;7.66;78.57;100712.75;5026983;28;19925;-94
2021/04/21 03:34:51;;;;;;;;;;;;;;;7.66;78.23;100702.72;5015810;28;19913;-96
2021/04/21 03:37:31;;;;;;;;;;;;;;;7.68;78.16;100697.84;5014487;28;20333;-93
2021/04/21 03:39:58;;;;;;;;;;;;;;;7.68;77.77;100694.31;5031503;28;19913;-94
2021/04/21 03:42:23;;;;;;;;;;;;;;;7.68;77.55;100694.31;5025189;28;19960;-93
2021/04/21 03:44:49;;;;;;;;;;;;;;;7.67;77.16;100685.38;5029617;28;19913;-91
2021/04/21 03:47:14;;;;;;;;;;;;;;;7.67;77.21;100704.38;5014387;28;19998;-96
2021/04/21 03:49:39;;;;;;;;;;;;;;;7.69;76.83;100704.09;5016724;28;19909;-87
2021/04/21 03:52:05;;;;;;;;;;;;;;;7.67;76.74;100688.09;5014359;28;20339;-92
2021/04/21 03:54:30;;;;;;;;;;;;;;;7.65;76.77;100724.69;5015977;28;19913;-94
2021/04/21 03:56:56;;;;;;;;;;;;;;;7.62;76.58;100698.06;5013527;28;20004;-95
2021/04/21 03:59:22;;;;;;;;;;;;;;;7.57;76.58;100694.22;5031145;28;19913;-95
2021/04/21 04:01:47;;;;;;;;;;;;;;;7.57;76.75;100693.41;5014864;28;20028;-93
2021/04/21 04:04:12;;;;;;;;;;;;;;;7.55;76.67;100700.97;5031530;28;19961;-93
2021/04/21 04:06:42;;;;;;;;;;;;;;;7.53;76.74;100687.69;5003485;28;19913;-95
2021/04/21 04:09:08;;;;;;;;;;;;;;;7.51;76.88;100694.44;5048831;28;19980;-94
2021/04/21 04:11:33;;;;;;;;;;;;;;;7.49;76.77;100712.84;5039513;28;19959;-91
2021/04/21 04:14:07;;;;;;;;;;;;;;;7.48;76.72;100684.91;5025543;28;19925;-94
2021/04/21 04:16:32;;;;;;;;;;;;;;;7.47;77.04;100687.88;5028914;28;19910;-93
2021/04/21 04:18:58;;;;;;;;;;;;;;;7.45;77.08;100690.84;5041751;28;19913;-93
2021/04/21 04:21:27;;;;;;;;;;;;;;;7.44;77.10;100672.94;5024780;28;19924;-95
2021/04/21 04:23:52;;;;;;;;;;;;;;;7.47;76.82;100671.59;5020898;28;19920;-94
2021/04/21 04:26:17;;;;;;;;;;;;;;;7.50;77.03;100681.94;5021068;28;19909;-94
2021/04/21 04:28:42;;;;;;;;;;;;;;;7.53;76.86;100686.88;5015011;28;19917;-95
2021/04/21 04:31:07;;;;;;;;;;;;;;;7.57;76.74;100672.53;5041111;28;20271;-95
2021/04/21 04:33:33;;;;;;;;;;;;;;;7.62;76.54;100662.81;5013787;28;19964;-95
2021/04/21 04:35:58;;;;;;;;;;;;;;;7.66;76.11;100663.91;5004110;28;19918;-91
2021/04/21 04:38:24;;;;;;;;;;;;;;;7.69;75.47;100671.53;5029399;28;19913;-96
2021/04/21 04:40:52;;;;;;;;;;;;;;;7.68;74.57;100661.78;5013995;28;19917;-96
2021/04/21 04:43:21;;;;;;;;;;;;;;;7.67;74.09;100673.72;5013753;28;19916;-94
2021/04/21 04:45:56;;;;;;;;;;;;;;;7.65;73.84;100667.72;5014270;28;19913;-94
2021/04/21 04:48:23;;;;;;;;;;;;;;;7.65;73.91;100678.56;5015092;28;19920;-88
2021/04/21 04:50:49;;;;;;;;;;;;;;;7.65;73.84;100656.84;5015033;28;19959;-93
2021/04/21 04:53:15;;;;;;;;;;;;;;;7.63;73.39;100659.00;4989642;28;19913;-96
2021/04/21 04:55:40;;;;;;;;;;;;;;;7.61;73.22;100663.88;5012450;28;19921;-92
2021/04/21 04:58:05;;;;;;;;;;;;;;;7.62;73.01;100673.66;5018257;28;19923;-91
2021/04/21 05:00:31;;;;;;;;;;;;;;;7.63;72.88;100664.44;5018176;28;20040;-95
2021/04/21 05:03:03;;;;;;;;;;;;;;;7.65;72.57;100646.81;5016647;28;19920;-92
2021/04/21 05:05:28;;;;;;;;;;;;;;;7.65;72.58;100656.84;5015824;28;19913;-91
2021/04/21 05:07:56;;;;;;;;;;;;;;;7.63;71.78;100683.41;5038905;28;19917;-93
2021/04/21 05:10:26;;;;;;;;;;;;;;;7.66;71.79;100664.72;5053734;28;19913;-94
2021/04/21 05:12:52;;;;;;;;;;;;;;;7.67;71.33;100668.28;5014137;28;20014;-92
2021/04/21 05:15:32;;;;;;;;;;;;;;;7.73;71.02;100675.38;5018220;28;19913;-91
2021/04/21 05:18:00;;;;;;;;;;;;;;;7.75;70.61;100684.91;5023802;28;19932;-91
2021/04/21 05:20:44;;;;;;;;;;;;;;;7.77;69.81;100662.91;5056793;28;19915;-90
2021/04/21 05:23:24;;;;;;;;;;;;;;;7.78;69.37;100672.72;5027969;28;19940;-88
2021/04/21 05:25:55;;;;;;;;;;;;;;;7.83;69.67;100672.78;5029251;28;19909;-93
2021/04/21 05:28:20;;;;;;;;;;;;;;;7.83;69.63;100663.78;5019818;28;20000;-88
2021/04/21 05:31:11;;;;;;;;;;;;;;;7.82;69.24;100651.31;5016467;28;20027;-93
2021/04/21 05:33:46;;;;;;;;;;;;;;;7.73;68.13;100676.19;5014325;28;19941;-95
2021/04/21 05:36:17;;;;;;;;;;;;;;;7.72;67.94;100658.28;5049894;28;20345;-95
2021/04/21 05:38:48;;;;;;;;;;;;;;;7.73;67.70;100664.53;5019570;28;19913;-92
2021/04/21 05:41:16;;;;;;;;;;;;;;;7.73;67.49;100669.97;5023867;28;19936;-86
2021/04/21 05:44:00;;;;;;;;;;;;;;;7.70;67.19;100662.34;5039820;28;19908;-91
2021/04/21 05:46:44;;;;;;;;;;;;;;;7.70;67.28;100681.34;5040396;28;19963;-91
2021/04/21 05:49:09;;;;;;;;;;;;;;;7.70;67.71;100654.19;5034524;28;20329;-90
2021/04/21 05:51:55;;;;;;;;;;;;;;;7.67;67.49;100677.22;5025800;28;19913;-92
2021/04/21 05:54:26;;;;;;;;;;;;;;;7.62;66.65;100651.94;5037054;28;20067;-94
2021/04/21 05:57:10;;;;;;;;;;;;;;;7.61;67.94;100647.59;5037982;28;19912;-92
2021/04/21 05:59:38;;;;;;;;;;;;;;;7.62;68.18;100635.69;5037986;28;19966;-92
2021/04/21 06:02:04;;;;;;;;;;;;;;;7.63;68.26;100648.16;5040081;28;19987;-94
2021/04/21 06:04:29;;;;;;;;;;;;;;;7.61;68.41;100625.88;5036785;28;19991;-93
2021/04/21 06:07:07;;;;;;;;;;;;;;;7.62;69.11;100625.63;5037779;28;19909;-94
2021/04/21 06:09:32;;;;;;;;;;;;;;;7.62;69.19;100641.91;5034784;28;20003;-89
2021/04/21 06:12:16;;;;;;;;;;;;;;;7.57;69.47;100656.25;5039181;28;19945;-92
2021/04/21 06:14:44;;;;;;;;;;;;;;;7.52;69.90;100637.19;5026495;28;19921;-88
2021/04/21 06:17:10;;;;;;;;;;;;;;;7.48;70.09;100640.69;5020772;28;19909;-90
2021/04/21 06:19:35;;;;;;;;;;;;;;;7.41;70.06;100630.03;5018438;28;20341;-91
2021/04/21 06:22:00;;;;;;;;;;;;;;;7.36;70.36;100630.00;5024167;28;19927;-88
2021/04/21 06:24:27;;;;;;;;;;;;;;;7.31;70.52;100625.34;5051529;28;19908;-92
2021/04/21 06:27:07;;;;;;;;;;;;;;;7.29;70.83;100641.06;5039544;28;19959;-92
2021/04/21 06:29:33;;;;;;;;;;;;;;;7.31;70.83;100632.66;5028953;28;19913;-88
2021/04/21 06:32:00;;;;;;;;;;;;;;;7.31;70.71;100640.78;5015290;28;20368;-92
2021/04/21 06:34:27;;;;;;;;;;;;;;;7.33;70.70;100633.22;4999044;28;19917;-90
2021/04/21 06:36:55;;;;;;;;;;;;;;;7.35;70.44;100614.81;5022640;28;19913;-90
2021/04/21 06:39:23;;;;;;;;;;;;;;;7.36;69.94;100621.84;5018661;28;19913;-92
2021/04/21 06:42:02;;;;;;;;;;;;;;;7.40;69.67;100623.00;5035242;28;19977;-93
2021/04/21 06:44:32;;;;;;;;;;;;;;;7.46;69.50;100605.69;5035426;28;19913;-89
2021/04/21 06:46:57;;;;;;;;;;;;;;;7.49;68.99;100609.78;5018936;28;19913;-91
2021/04/21 06:49:22;;;;;;;;;;;;;;;7.51;68.60;100602.22;5019046;28;19971;-87
2021/04/21 06:51:47;;;;;;;;;;;;;;;7.50;68.37;100623.09;5048508;28;19967;-89
2021/04/21 06:54:13;;;;;;;;;;;;;;;7.50;67.80;100614.97;5027954;28;19963;-88
2021/04/21 06:56:38;;;;;;;;;;;;;;;7.54;68.05;100594.38;5029499;28;19921;-72
2021/04/21 06:59:03;;;;;;;;;;;;;;;7.53;67.78;100636.16;5025967;28;19921;-71
2021/04/21 07:01:29;;;;;;;;;;;;;;;7.48;67.15;100619.81;5033757;28;19920;-71
2021/04/21 07:03:54;;;;;;;;;;;;;;;7.43;66.51;100617.06;5031628;28;20004;-71
2021/04/21 07:06:21;;;;;;;;;;;;;;;7.41;66.07;100602.94;5015486;28;19920;-72
2021/04/21 07:08:46;;;;;;;;;;;;;;;7.44;65.96;100598.88;5033998;28;19921;-72
2021/04/21 07:11:11;;;;;;;;;;;;;;;7.50;66.11;100600.56;5033673;28;19920;-72
2021/04/21 07:13:46;;;;;;;;;;;;;;;7.56;65.95;100592.22;5033929;28;19913;-72
2021/04/21 07:16:17;;;;;;;;;;;;;;;7.54;65.68;100580.81;5056091;28;19956;-71
2021/04/21 07:18:44;;;;;;;;;;;;;;;7.54;65.34;100586.22;5033729;28;20361;-72
2021/04/21 07:21:10;;;;;;;;;;;;;;;7.55;65.50;100587.84;5019898;28;19919;-71
2021/04/21 07:23:36;;;;;;;;;;;;;;;7.56;65.45;100580.56;5033326;28;19948;-71
2021/04/21 07:26:02;;;;;;;;;;;;;;;7.54;65.85;100580.81;4999843;28;19913;-71
2021/04/21 07:28:27;;;;;;;;;;;;;;;7.53;65.97;100584.59;5018450;28;19912;-71
2021/04/21 07:30:52;;;;;;;;;;;;;;;7.57;66.54;100588.41;5031594;28;19928;-71
2021/04/21 07:33:37;;;;;;;;;;;;;;;7.58;65.96;100600.09;5031130;28;19920;-71
2021/04/21 07:36:06;;;;;;;;;;;;;;;7.62;66.38;100584.13;5032416;28;20367;-72
2021/04/21 07:38:36;;;;;;;;;;;;;;;7.60;65.73;100586.28;5022755;28;19921;-71
2021/04/21 07:41:01;;;;;;;;;;;;;;;7.57;65.49;100568.63;5016689;28;19971;-72
2021/04/21 07:43:26;;;;;;;;;;;;;;;7.58;65.30;100559.38;5024154;28;19913;-72
2021/04/21 07:45:55;;;;;;;;;;;;;;;7.58;64.58;100556.69;5037813;28;19912;-72
2021/04/21 07:48:33;;;;;;;;;;;;;;;7.62;64.66;100565.13;5032681;28;19913;-72
2021/04/21 07:51:17;;;;;;;;;;;;;;;7.62;64.83;100571.38;5031750;28;19959;-71
2021/04/21 07:53:49;;;;;;;;;;;;;;;7.64;64.35;100557.53;5024580;28;19940;-72
2021/04/21 07:56:14;;;;;;;;;;;;;;;7.61;64.35;100552.63;5016982;28;20270;-72
2021/04/21 07:58:40;;;;;;;;;;;;;;;7.65;64.16;100559.19;5033245;28;19920;-72
2021/04/21 08:01:05;;;;;;;;;;;;;;;7.67;63.96;100557.03;5031752;28;19919;-72
2021/04/21 08:03:32;;;;;;;;;;;;;;;7.64;64.02;100584.66;5031092;28;19921;-71
2021/04/21 08:05:57;;;;;;;;;;;;;;;7.61;64.41;100547.19;5031389;28;19974;-72
2021/04/21 08:08:28;;;;;;;;;;;;;;;7.65;64.51;100532.06;5031290;28;20366;-73
2021/04/21 08:10:53;;;;;;;;;;;;;;;7.70;64.59;100583.66;5030096;28;19917;-74
2021/04/21 08:13:37;;;;;;;;;;;;;;;7.69;64.71;100552.16;5028359;28;19962;-73
2021/04/21 08:16:03;;;;;;;;;;;;;;;7.67;63.75;100540.75;5037187;28;19925;-73
2021/04/21 08:18:30;;;;;;;;;;;;;;;7.63;62.97;100550.47;5012635;28;19913;-73
2021/04/21 08:20:57;;;;;;;;;;;;;;;7.61;62.77;100539.91;5030462;28;19948;-72
2021/04/21 08:23:22;;;;;;;;;;;;;;;7.63;62.44;100540.44;5029244;28;19913;-73
2021/04/21 08:25:48;;;;;;;;;;;;;;;7.68;62.83;100547.81;5035668;28;19919;-70
2021/04/21 08:28:13;;;;;;;;;;;;;;;7.78;62.96;100527.00;5024289;28;20026;-73
2021/04/21 08:30:38;;;;;;;;;;;;;;;7.80;62.83;100545.72;5010727;28;19917;-71
2021/04/21 08:33:04;;;;;;;;;;;;;;;7.85;63.47;100543.03;5031242;28;19982;-71
2021/04/21 08:35:29;;;;;;;;;;;;;;;7.98;63.56;100542.56;5031956;28;20381;-71
2021/04/21 08:37:54;;;;;;;;;;;;;;;7.96;63.04;100550.16;5033274;28;19916;-70
2021/04/21 08:40:21;;;;;;;;;;;;;;;7.99;63.45;100530.66;5031113;28;20007;-70
2021/04/21 08:42:46;;;;;;;;;;;;;;;8.01;62.98;100542.03;5013636;28;19988;-71
2021/04/21 08:45:12;;;;;;;;;;;;;;;8.07;62.85;100533.94;5023196;28;19961;-70
2021/04/21 08:47:40;;;;;;;;;;;;;;;8.13;62.84;100532.88;5015559;28;19913;-71
2021/04/21 08:50:06;;;;;;;;;;;;;;;8.11;62.73;100535.06;5032557;28;19970;-70
2021/04/21 08:52:43;;;;;;;;;;;;;;;8.15;62.78;100536.97;5030422;28;19932;-71
2021/04/21 08:55:08;;;;;;;;;;;;;;;8.22;63.04;100536.75;5046147;28;20274;-70
2021/04/21 08:57:33;;;;;;;;;;;;;;;8.16;63.13;100549.47;5013351;28;20007;-70
2021/04/21 08:59:58;;;;;;;;;;;;;;;8.13;62.96;100539.16;5032634;28;20362;-71
2021/04/21 09:02:24;;;;;;;;;;;;;;;8.22;62.83;100537.56;5022123;28;19913;-70
2021/04/21 09:04:49;;;;;;;;;;;;;;;8.30;62.17;100535.44;5031215;28;20018;-70
2021/04/21 09:07:14;;;;;;;;;;;;;;;8.31;62.42;100529.72;5013600;28;19948;-71
2021/04/21 09:09:39;;;;;;;;;;;;;;;8.35;62.45;100530.81;5015657;28;20277;-71
2021/04/21 09:12:05;;;;;;;;;;;;;;;8.51;62.57;100534.47;5030959;28;19964;-71
2021/04/21 09:14:30;;;;;;;;;;;;;;;8.54;61.98;100543.94;5023847;28;19917;-71
2021/04/21 09:16:56;;;;;;;;;;;;;;;8.48;62.47;100532.25;5032082;28;19960;-71
2021/04/21 09:19:21;;;;;;;;;;;;;;;8.41;62.08;100546.09;5020183;28;19920;-71
2021/04/21 09:21:46;;;;;;;;;;;;;;;8.34;62.13;100528.38;5031897;28;20043;-71
2021/04/21 09:24:13;;;;;;;;;;;;;;;8.33;62.71;100527.56;5031553;28;19952;-71
2021/04/21 09:26:38;;;;;;;;;;;;;;;8.30;62.98;100514.50;5016810;28;20316;-71
2021/04/21 09:29:03;;;;;;;;;;;;;;;8.47;62.89;100518.94;5026764;28;20396;-71
2021/04/21 09:31:30;;;;;;;;;;;;;;;8.60;62.97;100532.03;5017865;28;19967;-71
2021/04/21 09:34:08;;;;;;;;;;;;;;;8.53;62.35;100526.03;5030775;28;19919;-71
2021/04/21 09:36:35;;;;;;;;;;;;;;;8.54;62.25;100527.66;5035406;28;20371;-72
2021/04/21 09:39:12;;;;;;;;;;;;;;;8.62;62.15;100527.13;5014503;28;19959;-71
2021/04/21 09:41:39;;;;;;;;;;;;;;;8.65;61.73;100523.91;5031186;28;19964;-71
2021/04/21 09:44:31;;;;;;;;;;;;;;;8.66;62.05;100539.94;5015957;28;19939;-70
2021/04/21 09:46:57;;;;;;;;;;;;;;;8.76;61.99;100511.97;5010112;28;19913;-71
2021/04/21 09:49:35;;;;;;;;;;;;;;;8.79;61.53;100503.28;5029837;28;19916;-71
2021/04/21 09:52:12;;;;;;;;;;;;;;;8.79;62.19;100535.91;5022517;28;19917;-70
2021/04/21 09:54:40;;;;;;;;;;;;;;;8.71;62.20;100517.41;5023848;28;20318;-70
2021/04/21 09:57:13;;;;;;;;;;;;;;;8.71;62.45;100516.59;5012605;28;20362;-71
2021/04/21 09:59:38;;;;;;;;;;;;;;;8.81;61.97;100500.28;5031033;28;19917;-82
2021/04/21 10:02:04;;;;;;;;;;;;;;;8.92;61.82;100506.53;5045945;28;19913;-82
2021/04/21 10:04:30;;;;;;;;;;;;;;;8.91;62.16;100515.81;5047935;28;19967;-81
2021/04/21 10:06:59;;;;;;;;;;;;;;;8.88;62.30;100496.22;5014719;28;19913;-81
2021/04/21 10:09:31;;;;;;;;;;;;;;;8.86;62.16;100503.00;5018501;28;20000;-83
2021/04/21 10:12:16;;;;;;;;;;;;;;;8.93;62.08;100494.59;5029684;28;19935;-83
2021/04/21 10:14:41;;;;;;;;;;;;;;;9.15;61.82;100506.03;5033255;28;20327;-81
2021/04/21 10:17:07;;;;;;;;;;;;;;;9.27;61.99;100500.31;5012785;28;19913;-81
2021/04/21 10:19:32;;;;;;;;;;;;;;;9.30;60.71;100489.75;5037250;28;19908;-82
2021/04/21 10:21:57;;;;;;;;;;;;;;;9.14;59.71;100490.81;5053203;28;20003;-82
2021/04/21 10:24:23;;;;;;;;;;;;;;;8.85;60.32;100485.88;5001525;28;19917;-82
2021/04/21 10:26:48;;;;;;;;;;;;;;;8.80;60.54;100488.59;5030631;28;19912;-82
2021/04/21 10:29:13;;;;;;;;;;;;;;;8.64;60.70;100501.31;5031565;28;19923;-82
2021/04/21 10:31:39;;;;;;;;;;;;;;;8.51;60.91;100498.31;5029095;28;19917;-82
2021/04/21 10:34:05;;;;;;;;;;;;;;;8.42;60.80;100476.28;5017531;28;19909;-82
2021/04/21 10:36:31;;;;;;;;;;;;;;;8.60;61.12;100478.50;5022270;28;19913;-82
2021/04/21 10:38:57;;;;;;;;;;;;;;;8.75;60.89;100526.63;5026456;28;19917;-81
2021/04/21 10:41:31;;;;;;;;;;;;;;;8.80;60.50;100477.72;5026674;28;20331;-81
2021/04/21 10:44:16;;;;;;;;;;;;;;;8.86;60.67;100476.63;5035445;28;20089;-83
2021/04/21 10:47:12;;;;;;;;;;;;;;;8.95;60.09;100468.78;5016406;28;19913;-81
2021/04/21 10:49:43;;;;;;;;;;;;;;;9.04;59.93;100475.31;5014256;28;19921;-83
2021/04/21 10:52:21;;;;;;;;;;;;;;;9.10;59.65;100470.69;5032824;28;19917;-77
2021/04/21 10:54:47;;;;;;;;;;;;;;;9.22;59.87;100452.19;5034726;28;19964;-77
2021/04/21 10:57:21;;;;;;;;;;;;;;;9.44;59.59;100448.34;5026276;28;19946;-77
2021/04/21 11:00:07;;;;;;;;;;;;;;;9.51;59.19;100449.69;5026972;28;20259;-77
2021/04/21 11:02:41;;;;;;;;;;;;;;;9.51;59.27;100446.16;5032268;28;19940;-77
2021/04/21 11:05:08;;;;;;;;;;;;;;;9.57;59.00;100453.22;5037227;28;19920;-82
2021/04/21 11:07:33;;;;;;;;;;;;;;;9.66;58.58;100451.59;5027392;28;19963;-81
2021/04/21 11:09:58;;;;;;;;;;;;;;;9.65;58.61;100444.50;5018925;28;19952;-81
2021/04/21 11:12:42;;;;;;;;;;;;;;;9.64;58.30;100453.78;5016810;28;20049;-81
2021/04/21 11:15:09;;;;;;;;;;;;;;;9.66;58.21;100470.66;5039941;28;19917;-82
2021/04/21 11:18:13;;;;;;;;;;;;;;;9.62;58.32;100447.78;5011552;28;19970;-81
2021/04/21 11:20:48;;;;;;;;;;;;;;;9.68;58.65;100438.50;4978221;28;19921;-81
2021/04/21 11:23:31;;;;;;;;;;;;;;;9.88;58.66;100450.44;4975521;28;19922;-81
2021/04/21 11:26:15;;;;;;;;;;;;;;;10.05;58.16;100440.03;5010348;28;19967;-82
2021/04/21 11:29:04;;;;;;;;;;;;;;;10.05;57.57;100436.50;5033573;28;20003;-82
2021/04/21 11:31:42;;;;;;;;;;;;;;;10.06;57.67;100455.25;5030068;28;19991;-81
2021/04/21 11:34:13;;;;;;;;;;;;;;;10.12;57.98;100435.09;5035712;28;19917;-81
2021/04/21 11:36:51;;;;;;;;;;;;;;;10.27;57.52;100427.94;5032777;28;20000;-80
2021/04/21 11:42:19;;;;;;;;;;;;;;;10.44;57.31;100434.66;5030988;28;19917;-81
2021/04/21 11:45:03;;;;;;;;;;;;;;;10.58;56.71;100429.41;5036066;28;19912;-83
2021/04/21 11:47:47;;;;;;;;;;;;;;;10.75;56.49;100417.31;5032813;28;19966;-81
2021/04/21 11:50:22;;;;;;;;;;;;;;;10.86;56.14;100418.88;5027881;28;20200;-83
2021/04/21 11:52:57;;;;;;;;;;;;;;;10.93;56.18;100411.16;5014705;28;19920;-82
2021/04/21 11:55:22;;;;;;;;;;;;;;;11.10;56.13;100424.38;5036572;28;19924;-81
2021/04/21 11:57:52;;;;;;;;;;;;;;;11.10;56.07;100408.84;5027266;28;19928;-80
2021/04/21 12:00:18;;;;;;;;;;;;;;;11.03;55.53;100410.28;5012897;28;20031;-78
2021/04/21 12:02:44;;;;;;;;;;;;;;;11.10;55.44;100425.22;5029917;28;19917;-77
2021/04/21 12:05:10;;;;;;;;;;;;;;;11.37;55.46;100418.41;5026191;28;19913;-78
2021/04/21 12:07:36;;;;;;;;;;;;;;;11.48;54.96;100414.47;5014608;28;19919;-70
2021/04/21 12:10:01;;;;;;;;;;;;;;;11.53;54.91;100411.69;5031772;28;19932;-71
2021/04/21 12:12:26;;;;;;;;;;;;;;;11.48;54.89;100398.09;5028340;28;19920;-71
2021/04/21 12:15:01;;;;;;;;;;;;;;;11.65;55.00;100388.63;5038804;28;19923;-70
2021/04/21 12:17:27;;;;;;;;;;;;;;;11.65;54.47;100392.19;5030238;28;19920;-71
2021/04/21 12:19:52;;;;;;;;;;;;;;;11.67;54.58;100384.50;5048976;28;19913;-70
2021/04/21 12:22:17;;;;;;;;;;;;;;;11.88;54.65;100385.13;5030065;28;20406;-71
2021/04/21 12:24:42;;;;;;;;;;;;;;;12.11;54.40;100371.69;5019527;28;19913;-71
2021/04/21 12:27:08;;;;;;;;;;;;;;;12.28;53.65;100380.22;5046224;28;19956;-70
2021/04/21 12:29:33;;;;;;;;;;;;;;;12.47;53.49;100373.91;5016419;28;19921;-71
2021/04/21 12:32:04;;;;;;;;;;;;;;;12.79;53.16;100375.88;5014501;28;19971;-70
2021/04/21 12:34:29;;;;;;;;;;;;;;;13.05;52.42;100389.97;5030871;28;19917;-71
2021/04/21 12:36:55;;;;;;;;;;;;;;;13.16;51.73;100402.34;5013201;28;20317;-70
2021/04/21 12:39:22;;;;;;;;;;;;;;;13.19;52.00;100377.09;5032486;28;19949;-71
2021/04/21 12:41:53;;;;;;;;;;;;;;;13.56;51.45;100391.81;5028847;28;19923;-71
2021/04/21 12:44:28;;;;;;;;;;;;;;;13.59;50.60;100379.44;5050145;28;19913;-71
2021/04/21 12:46:54;;;;;;;;;;;;;;;13.30;49.79;100375.84;5012960;28;19915;-70
2021/04/21 12:49:37;;;;;;;;;;;;;;;12.79;50.57;100375.88;5016167;28;19913;-70
2021/04/21 12:52:04;;;;;;;;;;;;;;;12.79;51.04;100382.16;5030379;28;19920;-70
2021/04/21 12:54:37;;;;;;;;;;;;;;;12.58;51.26;100367.22;5010098;28;19917;-71
2021/04/21 12:57:05;;;;;;;;;;;;;;;12.34;51.45;100359.91;5017129;28;20003;-71
2021/04/21 12:59:40;;;;;;;;;;;;;;;12.11;51.49;100366.22;5014559;28;20004;-70
2021/04/21 13:02:05;;;;;;;;;;;;;;;11.80;51.39;100344.75;5031265;28;19995;-71